createdAt,value
2023-02-11T00:01:44.375Z,32.20
2023-02-11T00:05:07.334Z,30.20
2023-02-11T00:08:29.715Z,30.65
2023-02-11T00:11:52.109Z,29.55
2023-02-11T00:15:18.194Z,29.20
2023-02-11T00:18:40.681Z,28.73
2023-02-11T00:22:03.186Z,29.25
2023-02-11T00:25:26.114Z,27.20
2023-02-11T00:28:48.914Z,30.60
2023-02-11T00:32:13.384Z,28.17
2023-02-11T00:35:37.661Z,32.47
2023-02-11T00:39:00.359Z,29.85
2023-02-11T00:42:23.647Z,31.27
2023-02-11T00:45:49.513Z,33.97
2023-02-11T00:49:13.404Z,31.48
2023-02-11T00:52:36.633Z,31.15
2023-02-11T00:55:58.971Z,29.63
2023-02-11T00:59:21.362Z,32.20
2023-02-11T01:02:44.030Z,29.67
2023-02-11T01:06:08.914Z,27.80
2023-02-11T01:09:33.068Z,33.13
2023-02-11T01:12:58.761Z,29.92
2023-02-11T01:16:21.416Z,29.48
2023-02-11T01:19:44.403Z,26.23
2023-02-11T01:23:08.461Z,26.43
2023-02-11T01:26:31.837Z,27.60
2023-02-11T01:29:54.290Z,27.23
2023-02-11T01:33:16.747Z,26.33
2023-02-11T01:36:39.354Z,25.93
2023-02-11T01:40:04.298Z,27.37
2023-02-11T01:43:27.223Z,27.80
2023-02-11T01:46:50.266Z,27.52
2023-02-11T01:50:13.801Z,26.00
2023-02-11T01:54:05.424Z,26.12
2023-02-11T01:57:31.015Z,23.45
2023-02-11T02:00:53.961Z,24.87
2023-02-11T02:04:18.783Z,25.20
2023-02-11T02:07:45.927Z,23.65
2023-02-11T02:11:08.945Z,26.87
2023-02-11T02:14:34.122Z,27.00
2023-02-11T02:18:05.434Z,32.03
2023-02-11T02:21:58.501Z,27.87
2023-02-11T02:25:29.880Z,24.92
2023-02-11T02:29:05.372Z,24.67
2023-02-11T02:32:34.079Z,24.77
2023-02-11T02:36:02.721Z,24.30
2023-02-11T02:39:27.274Z,26.98
2023-02-11T02:42:50.028Z,25.67
2023-02-11T02:46:14.706Z,25.87
2023-02-11T02:49:38.618Z,25.23
2023-02-11T02:53:09.144Z,28.45
2023-02-11T02:56:33.469Z,25.50
2023-02-11T03:00:09.441Z,27.23
2023-02-11T03:03:36.742Z,27.30
2023-02-11T03:07:04.176Z,28.70
2023-02-11T03:10:27.983Z,26.92
2023-02-11T03:13:50.799Z,27.63
2023-02-11T03:17:13.431Z,25.20
2023-02-11T03:20:37.606Z,28.30
2023-02-11T03:24:03.280Z,28.48
2023-02-11T03:27:30.944Z,29.47
2023-02-11T03:30:57.266Z,29.85
2023-02-11T03:34:22.099Z,32.58
2023-02-11T03:37:46.654Z,30.15
2023-02-11T03:41:10.538Z,29.43
2023-02-11T03:44:36.044Z,26.70
2023-02-11T03:48:01.347Z,27.08
2023-02-11T03:51:23.760Z,28.95
2023-02-11T03:54:46.702Z,27.10
2023-02-11T03:58:10.473Z,27.80
2023-02-11T04:01:33.305Z,28.45
2023-02-11T04:04:56.509Z,26.25
2023-02-11T04:08:18.889Z,25.83
2023-02-11T04:11:41.953Z,28.17
2023-02-11T04:15:06.490Z,27.62
2023-02-11T04:18:29.165Z,26.37
2023-02-11T04:21:51.496Z,25.20
2023-02-11T04:25:14.624Z,23.40
2023-02-11T04:28:36.949Z,25.02
2023-02-11T04:32:01.361Z,24.80
2023-02-11T04:35:23.875Z,23.17
2023-02-11T04:38:46.887Z,23.12
2023-02-11T04:42:12.346Z,23.73
2023-02-11T04:45:34.855Z,22.52
2023-02-11T04:48:59.065Z,23.07
2023-02-11T04:52:21.399Z,23.35
2023-02-11T04:55:44.050Z,22.30
2023-02-11T04:59:07.022Z,22.98
2023-02-11T05:02:29.482Z,22.67
2023-02-11T05:05:53.664Z,21.62
2023-02-11T05:09:16.826Z,23.40
2023-02-11T05:12:39.542Z,24.65
2023-02-11T05:16:02.248Z,24.93
2023-02-11T05:19:24.866Z,24.15
2023-02-11T05:22:48.688Z,23.55
2023-02-11T05:26:11.212Z,22.90
2023-02-11T05:29:33.468Z,22.40
2023-02-11T05:32:56.650Z,22.45
2023-02-11T05:36:19.138Z,22.23
2023-02-11T05:39:43.156Z,20.92
2023-02-11T05:43:05.680Z,21.55
2023-02-11T05:46:28.238Z,21.58
2023-02-11T05:49:50.610Z,22.73
2023-02-11T05:53:13.182Z,22.87
2023-02-11T05:56:37.510Z,22.10
2023-02-11T06:00:00.161Z,23.12
2023-02-11T06:03:23.136Z,22.45
2023-02-11T06:06:46.211Z,22.75
2023-02-11T06:10:09.720Z,22.85
2023-02-11T06:13:34.201Z,21.45
2023-02-11T06:16:56.698Z,18.52
2023-02-11T06:20:19.374Z,18.55
2023-02-11T06:23:41.929Z,17.57
2023-02-11T06:27:04.952Z,16.70
2023-02-11T06:30:28.618Z,17.40
2023-02-11T06:33:51.989Z,19.77
2023-02-11T06:37:14.577Z,19.80
2023-02-11T06:40:37.228Z,19.35
2023-02-11T06:43:59.850Z,18.95
2023-02-11T06:47:23.903Z,18.87
2023-02-11T06:50:46.484Z,20.07
2023-02-11T06:54:09.074Z,19.87
2023-02-11T06:57:31.884Z,18.50
2023-02-11T07:00:54.721Z,14.90
2023-02-11T07:04:19.505Z,16.50
2023-02-11T07:07:42.592Z,18.15
2023-02-11T07:11:10.551Z,15.82
2023-02-11T07:14:33.005Z,18.25
2023-02-11T07:17:55.422Z,15.00
2023-02-11T07:21:21.470Z,16.08
2023-02-11T07:24:44.051Z,17.23
2023-02-11T07:28:07.117Z,17.95
2023-02-11T07:31:30.530Z,18.98
2023-02-11T07:34:53.183Z,21.23
2023-02-11T07:38:17.059Z,19.83
2023-02-11T07:41:39.887Z,21.83
2023-02-11T07:45:02.307Z,20.93
2023-02-11T07:48:25.516Z,20.88
2023-02-11T07:51:49.214Z,22.02
2023-02-11T07:55:13.202Z,21.75
2023-02-11T07:58:35.779Z,24.33
2023-02-11T08:01:58.697Z,25.65
2023-02-11T08:05:21.612Z,25.23
2023-02-11T08:08:44.171Z,30.37
2023-02-11T08:12:08.730Z,22.97
2023-02-11T08:15:31.318Z,19.75
2023-02-11T08:18:54.167Z,21.92
2023-02-11T08:22:16.660Z,19.83
2023-02-11T08:25:39.189Z,18.87
2023-02-11T08:29:03.701Z,18.98
2023-02-11T08:32:26.880Z,14.65
2023-02-11T08:35:49.032Z,18.42
2023-02-11T08:39:20.070Z,18.57
2023-02-11T08:42:43.077Z,21.85
2023-02-11T08:46:07.477Z,20.27
2023-02-11T08:49:30.686Z,18.80
2023-02-11T08:52:53.697Z,17.87
2023-02-11T08:56:16.453Z,18.70
2023-02-11T08:59:40.097Z,13.75
2023-02-11T09:03:04.000Z,18.27
2023-02-11T09:06:26.957Z,21.27
2023-02-11T09:09:49.481Z,17.23
2023-02-11T09:13:12.702Z,16.00
2023-02-11T09:16:36.106Z,16.60
2023-02-11T09:19:59.982Z,16.37
2023-02-11T09:23:22.654Z,13.45
2023-02-11T09:26:45.461Z,15.02
2023-02-11T09:30:08.876Z,19.50
2023-02-11T09:33:31.496Z,16.47
2023-02-11T09:36:55.609Z,15.95
2023-02-11T09:40:18.326Z,15.13
2023-02-11T09:43:44.206Z,15.43
2023-02-11T09:47:08.056Z,14.40
2023-02-11T09:50:32.285Z,13.57
2023-02-11T09:54:00.927Z,15.60
2023-02-11T09:57:29.020Z,17.25
2023-02-11T10:00:58.184Z,12.37
2023-02-11T10:04:26.455Z,11.35
2023-02-11T10:07:52.679Z,15.63
2023-02-11T10:11:30.989Z,9.70
2023-02-11T10:15:12.762Z,17.30
2023-02-11T10:18:41.563Z,18.02
2023-02-11T10:22:08.600Z,17.65
2023-02-11T10:25:35.940Z,17.10
2023-02-11T10:29:02.030Z,15.57
2023-02-11T10:32:36.672Z,14.93
2023-02-11T10:35:59.259Z,17.30
2023-02-11T10:39:23.229Z,15.45
2023-02-11T10:42:47.274Z,17.70
2023-02-11T10:46:16.071Z,16.75
2023-02-11T10:49:39.713Z,17.98
2023-02-11T10:53:19.861Z,16.60
2023-02-11T10:56:43.615Z,15.33
2023-02-11T11:00:17.120Z,12.75
2023-02-11T11:03:41.501Z,10.50
2023-02-11T11:07:15.629Z,12.75
2023-02-11T11:10:43.463Z,18.08
2023-02-11T11:14:06.429Z,13.90
2023-02-11T11:17:29.750Z,14.80
2023-02-11T11:20:59.608Z,16.35
2023-02-11T11:24:24.982Z,17.30
2023-02-11T11:27:50.101Z,17.25
2023-02-11T11:31:19.040Z,17.35
2023-02-11T11:34:43.085Z,21.42
2023-02-11T11:38:07.181Z,19.23
2023-02-11T11:41:30.702Z,17.63
2023-02-11T11:44:57.948Z,18.20
2023-02-11T11:48:22.374Z,16.90
2023-02-11T11:51:46.888Z,14.93
2023-02-11T11:55:15.947Z,13.40
2023-02-11T11:58:38.682Z,16.73
2023-02-11T12:02:12.249Z,10.52
2023-02-11T12:05:37.608Z,12.65
2023-02-11T12:09:07.913Z,12.00
2023-02-11T12:12:41.539Z,15.07
2023-02-11T12:16:10.359Z,14.35
2023-02-11T12:19:51.080Z,10.68
2023-02-11T12:23:23.845Z,12.97
2023-02-11T12:26:47.653Z,16.30
2023-02-11T12:30:19.336Z,15.63
2023-02-11T12:33:56.774Z,14.95
2023-02-11T12:37:26.010Z,13.52
2023-02-11T12:40:54.343Z,17.02
2023-02-11T12:44:23.136Z,11.27
2023-02-11T12:47:54.799Z,13.65
2023-02-11T12:51:24.615Z,13.02
2023-02-11T12:54:50.044Z,12.30
2023-02-11T12:58:14.773Z,15.52
2023-02-11T13:01:40.167Z,13.82
2023-02-11T13:05:07.473Z,15.50
2023-02-11T13:08:32.142Z,12.23
2023-02-11T13:11:56.100Z,13.32
2023-02-11T13:15:20.133Z,16.67
2023-02-11T13:18:54.715Z,14.20
2023-02-11T13:22:19.570Z,13.00
2023-02-11T13:25:44.840Z,12.70
2023-02-11T13:29:15.812Z,11.98
2023-02-11T13:33:18.343Z,12.15
2023-02-11T13:36:41.823Z,14.02
2023-02-11T13:40:07.418Z,16.12
2023-02-11T13:43:31.137Z,12.43
2023-02-11T13:47:02.364Z,11.02
2023-02-11T13:50:26.190Z,16.42
2023-02-11T13:53:50.597Z,16.25
2023-02-11T13:57:34.391Z,15.13
2023-02-11T14:00:58.910Z,15.25
2023-02-11T14:04:40.429Z,12.75
2023-02-11T14:08:51.669Z,13.55
2023-02-11T14:12:37.180Z,13.75
2023-02-11T14:16:08.577Z,14.33
2023-02-11T14:19:32.889Z,13.60
2023-02-11T14:22:55.222Z,16.02
2023-02-11T14:26:30.839Z,14.73
2023-02-11T14:30:10.553Z,15.27
2023-02-11T14:33:53.646Z,14.73
2023-02-11T14:37:22.270Z,14.10
2023-02-11T14:40:52.533Z,15.32
2023-02-11T14:44:17.041Z,15.00
2023-02-11T14:47:44.741Z,11.82
2023-02-11T14:51:09.639Z,14.10
2023-02-11T14:54:33.714Z,12.70
2023-02-11T14:58:14.283Z,18.23
2023-02-11T15:01:42.466Z,14.13
2023-02-11T15:05:26.297Z,14.50
2023-02-11T15:08:50.764Z,73.80
2023-02-11T15:12:18.357Z,30.35
2023-02-11T15:15:43.402Z,27.92
2023-02-11T15:19:07.285Z,31.47
2023-02-11T15:22:34.455Z,31.15
2023-02-11T15:25:58.194Z,21.27
2023-02-11T15:29:22.117Z,27.60
2023-02-11T15:32:46.528Z,28.25
2023-02-11T15:36:12.053Z,19.40
2023-02-11T15:39:40.481Z,22.45
2023-02-11T15:43:06.490Z,17.73
2023-02-11T15:46:38.359Z,26.27
2023-02-11T15:50:03.823Z,25.73
2023-02-11T15:53:29.275Z,20.30
2023-02-11T15:56:57.609Z,23.85
2023-02-11T16:00:24.898Z,23.15
2023-02-11T16:03:52.118Z,14.93
2023-02-11T16:07:42.372Z,11.10
2023-02-11T16:11:09.547Z,11.45
2023-02-11T16:14:37.631Z,11.27
2023-02-11T16:18:02.154Z,10.18
2023-02-11T16:21:30.274Z,9.10
2023-02-11T16:24:57.908Z,10.20
2023-02-11T16:28:23.475Z,8.23
2023-02-11T16:31:50.760Z,9.48
2023-02-11T16:35:14.708Z,13.75
2023-02-11T16:38:38.874Z,12.48
2023-02-11T16:42:05.234Z,15.23
2023-02-11T16:45:32.248Z,15.98
2023-02-11T16:48:58.142Z,18.17
2023-02-11T16:52:26.115Z,16.83
2023-02-11T16:55:50.838Z,15.55
2023-02-11T16:59:16.568Z,15.82
2023-02-11T17:02:41.130Z,12.10
2023-02-11T17:06:08.469Z,10.43
2023-02-11T17:09:32.624Z,14.65
2023-02-11T17:12:56.366Z,16.02
2023-02-11T17:16:23.069Z,12.57
2023-02-11T17:19:48.881Z,15.27
2023-02-11T17:23:14.994Z,16.13
2023-02-11T17:26:39.304Z,14.82
2023-02-11T17:30:03.986Z,17.17
2023-02-11T17:33:29.791Z,13.62
2023-02-11T17:36:56.047Z,15.80
2023-02-11T17:40:25.493Z,14.15
2023-02-11T17:43:49.936Z,15.07
2023-02-11T17:47:14.620Z,16.27
2023-02-11T17:50:40.450Z,18.20
2023-02-11T17:54:07.588Z,18.23
2023-02-11T17:57:33.376Z,17.67
2023-02-11T18:01:01.010Z,17.62
2023-02-11T18:04:27.942Z,17.60
2023-02-11T18:07:51.971Z,23.80
2023-02-11T18:11:18.071Z,17.70
2023-02-11T18:14:44.118Z,22.02
2023-02-11T18:18:22.144Z,24.08
2023-02-11T18:21:45.465Z,24.33
2023-02-11T18:25:10.632Z,26.00
2023-02-11T18:28:34.904Z,21.95
2023-02-11T18:32:01.199Z,18.02
2023-02-11T18:35:25.222Z,19.42
2023-02-11T18:38:50.200Z,18.35
2023-02-11T18:42:14.629Z,20.90
2023-02-11T18:45:39.549Z,20.02
2023-02-11T18:49:05.547Z,18.75
2023-02-11T18:52:29.416Z,19.20
2023-02-11T18:55:55.176Z,14.77
2023-02-11T18:59:20.649Z,19.40
2023-02-11T19:02:45.103Z,17.15
2023-02-11T19:06:16.240Z,21.40
2023-02-11T19:09:43.760Z,17.67
2023-02-11T19:13:08.660Z,16.83
2023-02-11T19:16:33.509Z,18.52
2023-02-11T19:19:58.110Z,21.20
2023-02-11T19:23:24.872Z,19.37
2023-02-11T19:26:49.629Z,17.23
2023-02-11T19:30:14.692Z,18.92
2023-02-11T19:33:43.929Z,19.95
2023-02-11T19:37:08.011Z,23.63
2023-02-11T19:40:36.965Z,21.83
2023-02-11T19:44:01.744Z,21.87
2023-02-11T19:47:29.688Z,21.58
2023-02-11T19:50:56.942Z,12.88
2023-02-11T19:54:22.142Z,23.70
2023-02-11T19:57:48.238Z,18.02
2023-02-11T20:01:13.390Z,18.00
2023-02-11T20:04:39.372Z,18.70
2023-02-11T20:08:04.386Z,18.93
2023-02-11T20:11:32.815Z,20.75
2023-02-11T20:14:59.407Z,19.70
2023-02-11T20:18:24.306Z,18.80
2023-02-11T20:21:48.339Z,19.10
2023-02-11T20:25:13.475Z,13.87
2023-02-11T20:28:37.971Z,14.20
2023-02-11T20:32:04.058Z,15.05
2023-02-11T20:35:28.615Z,15.80
2023-02-11T20:38:53.411Z,17.13
2023-02-11T20:42:17.628Z,18.48
2023-02-11T20:45:42.906Z,18.40
2023-02-11T20:49:09.359Z,17.12
2023-02-11T20:52:36.814Z,18.33
2023-02-11T20:56:04.190Z,12.10
2023-02-11T20:59:28.204Z,10.00
2023-02-11T21:02:58.782Z,14.35
2023-02-11T21:06:25.623Z,12.93
2023-02-11T21:09:49.882Z,10.07
2023-02-11T21:13:15.149Z,9.73
2023-02-11T21:16:39.316Z,13.23
2023-02-11T21:20:03.205Z,9.93
2023-02-11T21:23:29.669Z,11.35
2023-02-11T21:26:55.425Z,11.50
2023-02-11T21:30:19.409Z,12.98
2023-02-11T21:33:48.465Z,14.00
2023-02-11T21:37:12.008Z,10.00
2023-02-11T21:40:38.766Z,11.43
2023-02-11T21:44:02.113Z,10.27
2023-02-11T21:47:26.266Z,10.80
2023-02-11T21:50:50.075Z,9.25
2023-02-11T21:54:16.243Z,8.70
2023-02-11T21:57:44.130Z,8.95
2023-02-11T22:01:14.644Z,9.83
2023-02-11T22:04:41.984Z,9.75
2023-02-11T22:08:05.288Z,10.55
2023-02-11T22:11:27.973Z,9.10
2023-02-11T22:14:53.338Z,9.67
2023-02-11T22:18:16.870Z,10.13
2023-02-11T22:21:39.713Z,7.45
2023-02-11T22:25:03.311Z,7.82
2023-02-11T22:28:30.127Z,9.33
2023-02-11T22:31:54.471Z,8.82
2023-02-11T22:35:17.186Z,9.05
2023-02-11T22:38:40.090Z,10.23
2023-02-11T22:42:02.564Z,8.27
2023-02-11T22:45:25.863Z,9.07
2023-02-11T22:48:49.848Z,7.85
2023-02-11T22:52:12.997Z,8.88
2023-02-11T22:55:37.813Z,8.40
2023-02-11T22:59:01.249Z,5.00
2023-02-11T23:02:23.674Z,7.40
2023-02-11T23:05:47.979Z,7.18
2023-02-11T23:09:12.383Z,6.10
2023-02-11T23:12:35.249Z,8.10
2023-02-11T23:15:57.895Z,8.13
2023-02-11T23:19:20.640Z,6.22
2023-02-11T23:22:44.190Z,6.03
2023-02-11T23:26:06.894Z,9.15
2023-02-11T23:29:29.430Z,8.40
2023-02-11T23:32:52.232Z,7.93
2023-02-11T23:36:14.518Z,6.30
2023-02-11T23:39:38.808Z,9.15
2023-02-11T23:43:00.934Z,8.07
2023-02-11T23:46:23.666Z,8.65
2023-02-11T23:49:46.465Z,8.33
2023-02-11T23:53:08.826Z,5.57
2023-02-11T23:56:32.638Z,8.88
2023-02-11T23:59:55.880Z,5.90
